Peter R. Cresswell — VCBZ — position and weather

sailwx.info

Track history (hours):
 
Tides and Currents Weather Stations Pressure Air Temp Water Temp Dewpoint Dewpoint Depression Visibility Wind Speed Wind Dir Waves Ship Positions

Peter R. Cresswell

ex Algowest

Last reported at 2014-Sep-01 06:12 UTC. Time now 2014-Sep-01 13:44 UTC.
Position N 43°08' W 079°12'.

Length 219.2 m; beam 23.2 m; draft 8.7 m.

Type: Ship. MMSI: 316001697.

Date/timePositionNaut miles runAvg speedWind from/ knotsBaromVisibWave heightAir tempDewpointWater temp
2014-Sep-01 06:12N 43°08' W 079°12'0 0.3
2014-Sep-01 05:33N 43°08' W 079°12'1 0.3
2014-Sep-01 03:34N 43°07' W 079°12'269 5.4
2014-Aug-30 02:06N 46°03' W 083°57'  
2014-Aug-26 13:26N 46°22' W 084°13'7 7.5
2014-Aug-26 12:27N 46°16' W 084°07'7 7.4
2014-Aug-26 11:33N 46°10' W 084°04'9 9.5
2014-Aug-26 10:34N 46°02' W 083°55'1010.3
2014-Aug-26 09:33N 45°53' W 083°50'5911.7
2014-Aug-26 04:30N 45°09' W 082°53'  
2014-Aug-22 18:33N 43°07' W 079°12'17 1.9
2014-Aug-22 09:33N 43°24' W 079°06'7 7.3
2014-Aug-22 08:34N 43°26' W 078°56'8 7.5
2014-Aug-22 07:26N 43°28' W 078°45'7 7.4
2014-Aug-22 06:30N 43°30' W 078°36'  
Track history (hours):
 
Tides and Currents Weather Stations Pressure Air Temp Water Temp Dewpoint Dewpoint Depression Visibility Wind Speed Wind Dir Waves Ship Positions

Peter R. Cresswell

ex Algowest

Last reported at 2014-Sep-01 06:12 UTC. Time now 2014-Sep-01 13:44 UTC.
Position N 43°08' W 079°12'.

Length 219.2 m; beam 23.2 m; draft 8.7 m.

Type: Ship. MMSI: 316001697.

Date/timePositionNaut miles runAvg speedWind from/ knotsBaromVisibWave heightAir tempDewpointWater temp
2014-Sep-01 06:12N 43°08' W 079°12'0 0.3
2014-Sep-01 05:33N 43°08' W 079°12'1 0.3
2014-Sep-01 03:34N 43°07' W 079°12'269 5.4
2014-Aug-30 02:06N 46°03' W 083°57'  
2014-Aug-26 13:26N 46°22' W 084°13'7 7.5
2014-Aug-26 12:27N 46°16' W 084°07'7 7.4
2014-Aug-26 11:33N 46°10' W 084°04'9 9.5
2014-Aug-26 10:34N 46°02' W 083°55'1010.3
2014-Aug-26 09:33N 45°53' W 083°50'5911.7
2014-Aug-26 04:30N 45°09' W 082°53'  
2014-Aug-22 18:33N 43°07' W 079°12'17 1.9
2014-Aug-22 09:33N 43°24' W 079°06'7 7.3
2014-Aug-22 08:34N 43°26' W 078°56'8 7.5
2014-Aug-22 07:26N 43°28' W 078°45'7 7.4
2014-Aug-22 06:30N 43°30' W 078°36'  

Dump ship's entire track history